Time;durP1;ratioP1;P1;durP2;ratioP2;P2;SDS_P1;SDS_P2;PMS_P1;PMS_P2;Temp;Humidity;BMP_temperature;BMP_pressure;BME280_temperature;BME280_humidity;BME280_pressure;Samples;Min_cycle;Max_cycle;Signal;HPM_P1;HPM_P2
2024/03/27 00:01:12;;;;;;;3.22;1.75;;;;;;;;;;754642;183;1001533;-64
2024/03/27 00:03:37;;;;;;;4.20;2.17;;;;;;;;;;763094;182;809895;-64
2024/03/27 00:06:04;;;;;;;4.10;1.47;;;;;;;;;;757775;182;915902;-64
2024/03/27 00:08:30;;;;;;;3.92;2.25;;;;;;;;;;760363;182;717464;-64
2024/03/27 00:10:56;;;;;;;3.23;1.43;;;;;;;;;;760000;183;808618;-64
2024/03/27 00:13:22;;;;;;;2.93;1.60;;;;;;;;;;750844;183;894108;-64
2024/03/27 00:15:48;;;;;;;3.45;1.90;;;;;;;;;;753576;183;908896;-64
2024/03/27 00:18:14;;;;;;;2.93;1.60;;;;;;;;;;760061;182;816980;-65
2024/03/27 00:20:40;;;;;;;3.07;1.60;;;;;;;;;;761833;181;756844;-64
2024/03/27 00:23:07;;;;;;;3.37;1.60;;;;;;;;;;768617;179;898588;-64
2024/03/27 00:25:32;;;;;;;3.67;2.17;;;;;;;;;;768542;179;819182;-64
2024/03/27 00:27:58;;;;;;;2.83;1.37;;;;;;;;;;776339;180;626053;-64
2024/03/27 00:30:24;;;;;;;2.97;1.60;;;;;;;;;;768923;180;818431;-64
2024/03/27 00:32:49;;;;;;;3.90;1.67;;;;;;;;;;770891;179;813607;-64
2024/03/27 00:35:15;;;;;;;2.70;1.40;;;;;;;;;;774343;179;680691;-64
2024/03/27 00:37:41;;;;;;;3.33;1.93;;;;;;;;;;768969;179;839263;-64
2024/03/27 00:40:08;;;;;;;2.97;1.67;;;;;;;;;;769047;180;787992;-64
2024/03/27 00:42:33;;;;;;;3.43;1.77;;;;;;;;;;771383;179;814908;-67
2024/03/27 00:45:00;;;;;;;2.87;1.40;;;;;;;;;;768544;179;770891;-68
2024/03/27 00:47:25;;;;;;;2.70;1.60;;;;;;;;;;768694;179;818644;-67
2024/03/27 00:49:51;;;;;;;4.57;2.22;;;;;;;;;;773241;178;813789;-67
2024/03/27 00:52:17;;;;;;;7.37;1.93;;;;;;;;;;768634;178;714794;-67
2024/03/27 00:54:43;;;;;;;3.70;1.60;;;;;;;;;;773049;179;810394;-66
2024/03/27 00:57:09;;;;;;;4.20;1.60;;;;;;;;;;772484;179;913829;-67
2024/03/27 00:59:34;;;;;;;2.90;1.53;;;;;;;;;;774997;179;806470;-67
2024/03/27 01:02:01;;;;;;;3.53;1.57;;;;;;;;;;769164;180;809139;-67
2024/03/27 01:04:26;;;;;;;3.17;1.70;;;;;;;;;;771765;179;900469;-68
2024/03/27 01:06:52;;;;;;;2.83;1.43;;;;;;;;;;772262;179;799752;-67
2024/03/27 01:09:18;;;;;;;4.47;1.70;;;;;;;;;;766876;180;939876;-67
2024/03/27 01:11:44;;;;;;;3.72;1.98;;;;;;;;;;767441;180;919244;-67
2024/03/27 01:14:10;;;;;;;2.77;1.47;;;;;;;;;;773431;180;1016888;-67
2024/03/27 01:16:35;;;;;;;2.90;1.70;;;;;;;;;;766779;181;916877;-67
2024/03/27 01:19:01;;;;;;;3.75;1.75;;;;;;;;;;768315;180;814761;-67
2024/03/27 01:21:28;;;;;;;3.78;1.65;;;;;;;;;;771210;181;818991;-67
2024/03/27 01:23:53;;;;;;;4.17;2.00;;;;;;;;;;772020;178;834624;-67
2024/03/27 01:26:19;;;;;;;6.40;1.77;;;;;;;;;;770320;178;918240;-67
2024/03/27 01:28:45;;;;;;;3.40;1.67;;;;;;;;;;767053;179;1019351;-67
2024/03/27 01:31:11;;;;;;;3.20;1.50;;;;;;;;;;771931;179;817502;-67
2024/03/27 01:33:37;;;;;;;3.90;2.00;;;;;;;;;;767303;180;917600;-64
2024/03/27 01:36:03;;;;;;;7.65;2.20;;;;;;;;;;770644;180;920036;-65
2024/03/27 01:38:29;;;;;;;2.50;1.30;;;;;;;;;;772164;180;802412;-64
2024/03/27 01:40:55;;;;;;;3.80;1.73;;;;;;;;;;771589;179;848615;-67
2024/03/27 01:43:20;;;;;;;2.70;1.83;;;;;;;;;;772971;179;815319;-66
2024/03/27 01:45:46;;;;;;;7.50;2.70;;;;;;;;;;772637;180;819038;-67
2024/03/27 01:48:12;;;;;;;4.03;2.13;;;;;;;;;;768769;176;915344;-67
2024/03/27 01:50:38;;;;;;;4.13;1.70;;;;;;;;;;764390;180;811950;-67
2024/03/27 01:53:04;;;;;;;4.63;2.23;;;;;;;;;;770860;180;919338;-67
2024/03/27 02:00:09;;;;;;;5.25;2.78;;;;;;;;;;786414;170;749512;-63
2024/03/27 02:02:37;;;;;;;5.53;2.60;;;;;;;;;;766099;181;917468;-66
2024/03/27 02:05:01;;;;;;;6.17;2.20;;;;;;;;;;763661;180;1021079;-66
2024/03/27 02:07:27;;;;;;;5.33;2.60;;;;;;;;;;778560;179;918452;-69
2024/03/27 02:09:53;;;;;;;5.07;2.50;;;;;;;;;;769055;180;754660;-69
2024/03/27 02:12:19;;;;;;;4.87;2.03;;;;;;;;;;772373;178;918133;-69
2024/03/27 02:14:44;;;;;;;4.50;2.40;;;;;;;;;;780228;179;916176;-68
2024/03/27 02:17:10;;;;;;;4.70;1.67;;;;;;;;;;773448;177;912600;-68
2024/03/27 02:19:36;;;;;;;5.50;2.23;;;;;;;;;;776461;180;707338;-69
2024/03/27 02:22:02;;;;;;;4.50;2.73;;;;;;;;;;773979;180;715144;-69
2024/03/27 02:24:29;;;;;;;6.20;2.80;;;;;;;;;;778057;180;657689;-68
2024/03/27 02:26:54;;;;;;;6.23;2.83;;;;;;;;;;769294;177;913488;-69
2024/03/27 02:29:20;;;;;;;9.20;3.05;;;;;;;;;;766862;180;921725;-69
2024/03/27 02:31:46;;;;;;;3.50;2.13;;;;;;;;;;776667;177;816319;-68
2024/03/27 02:34:12;;;;;;;4.47;2.50;;;;;;;;;;775857;178;911535;-68
2024/03/27 02:36:38;;;;;;;11.53;2.97;;;;;;;;;;774193;178;807908;-68
2024/03/27 02:39:07;;;;;;;5.30;2.90;;;;;;;;;;778138;180;818144;-68
2024/03/27 02:41:30;;;;;;;9.33;2.90;;;;;;;;;;774497;180;906977;-69
2024/03/27 02:43:55;;;;;;;5.20;2.77;;;;;;;;;;776126;180;815069;-69
2024/03/27 02:46:21;;;;;;;9.17;3.03;;;;;;;;;;779986;178;861081;-69
2024/03/27 02:48:47;;;;;;;4.97;2.45;;;;;;;;;;773723;178;761711;-69
2024/03/27 02:51:13;;;;;;;4.60;2.40;;;;;;;;;;774058;179;875613;-68
2024/03/27 02:53:39;;;;;;;5.93;3.20;;;;;;;;;;775005;176;915336;-68
2024/03/27 02:56:05;;;;;;;5.07;2.90;;;;;;;;;;776037;178;643737;-68
2024/03/27 02:58:30;;;;;;;7.13;2.67;;;;;;;;;;773849;178;852105;-68
2024/03/27 03:00:56;;;;;;;5.97;3.08;;;;;;;;;;767787;178;709863;-69
2024/03/27 03:03:22;;;;;;;6.43;2.80;;;;;;;;;;778860;178;916822;-69
2024/03/27 03:05:48;;;;;;;9.80;2.97;;;;;;;;;;772707;177;907568;-69
2024/03/27 03:08:14;;;;;;;9.97;2.97;;;;;;;;;;772312;180;862358;-68
2024/03/27 03:10:40;;;;;;;7.70;3.23;;;;;;;;;;781425;180;851214;-69
2024/03/27 03:13:06;;;;;;;6.80;2.77;;;;;;;;;;780673;177;629914;-68
2024/03/27 03:15:31;;;;;;;4.20;2.70;;;;;;;;;;775379;177;921060;-69
2024/03/27 03:17:57;;;;;;;4.73;2.40;;;;;;;;;;774083;178;915310;-68
2024/03/27 03:20:23;;;;;;;3.10;2.10;;;;;;;;;;774712;180;817618;-68
2024/03/27 03:22:52;;;;;;;5.87;2.87;;;;;;;;;;774416;177;918484;-69
2024/03/27 03:25:15;;;;;;;6.17;2.80;;;;;;;;;;775443;177;884232;-68
2024/03/27 03:27:41;;;;;;;5.07;2.67;;;;;;;;;;771310;179;811481;-69
2024/03/27 03:30:07;;;;;;;4.63;2.47;;;;;;;;;;775697;177;922095;-68
2024/03/27 03:32:33;;;;;;;3.43;2.00;;;;;;;;;;777389;180;918066;-69
2024/03/27 03:34:58;;;;;;;5.30;2.90;;;;;;;;;;777022;180;717015;-68
2024/03/27 03:37:24;;;;;;;4.37;2.00;;;;;;;;;;773598;180;709032;-68
2024/03/27 03:39:51;;;;;;;5.10;2.92;;;;;;;;;;768744;180;1122768;-69
2024/03/27 03:42:16;;;;;;;7.03;2.37;;;;;;;;;;774225;180;913505;-68
2024/03/27 03:44:42;;;;;;;7.30;2.60;;;;;;;;;;774148;177;854195;-68
2024/03/27 03:47:08;;;;;;;4.75;2.47;;;;;;;;;;776250;178;920200;-68
2024/03/27 03:49:33;;;;;;;5.10;2.90;;;;;;;;;;776538;180;814201;-69
2024/03/27 03:51:59;;;;;;;11.32;3.60;;;;;;;;;;771329;181;920153;-66
2024/03/27 03:54:25;;;;;;;9.33;2.70;;;;;;;;;;774236;180;803044;-66
2024/03/27 03:56:51;;;;;;;5.97;2.10;;;;;;;;;;765405;181;923583;-67
2024/03/27 03:59:17;;;;;;;7.47;2.93;;;;;;;;;;778137;180;711471;-65
2024/03/27 04:01:43;;;;;;;6.47;2.10;;;;;;;;;;769687;180;885095;-66
2024/03/27 04:04:09;;;;;;;5.23;2.60;;;;;;;;;;769501;180;838533;-66
2024/03/27 04:06:35;;;;;;;7.70;2.40;;;;;;;;;;773706;180;917173;-66
2024/03/27 04:09:01;;;;;;;10.13;2.63;;;;;;;;;;760778;180;842183;-66
2024/03/27 04:11:27;;;;;;;8.63;3.07;;;;;;;;;;770748;181;844279;-66
2024/03/27 04:13:52;;;;;;;4.47;3.05;;;;;;;;;;779650;180;807221;-66
2024/03/27 04:16:18;;;;;;;7.53;2.30;;;;;;;;;;772833;179;918377;-66
2024/03/27 04:18:44;;;;;;;5.80;2.37;;;;;;;;;;769694;180;923731;-66
2024/03/27 04:21:10;;;;;;;4.90;2.80;;;;;;;;;;773497;178;824667;-65
2024/03/27 04:23:35;;;;;;;6.33;2.93;;;;;;;;;;776234;176;847842;-66
2024/03/27 04:26:01;;;;;;;5.35;3.17;;;;;;;;;;774808;177;883573;-66
2024/03/27 04:35:07;;;;;;;6.55;3.28;;;;;;;;;;775749;170;921499;-66
2024/03/27 04:37:34;;;;;;;5.43;2.23;;;;;;;;;;765307;180;825777;-67
2024/03/27 04:40:00;;;;;;;4.53;2.03;;;;;;;;;;775803;180;760470;-66
2024/03/27 04:45:08;;;;;;;7.85;3.30;;;;;;;;;;777586;173;895744;-64
2024/03/27 04:47:34;;;;;;;12.03;3.50;;;;;;;;;;764670;177;835207;-64
2024/03/27 04:50:00;;;;;;;31.83;3.23;;;;;;;;;;777847;177;682526;-64
2024/03/27 04:52:27;;;;;;;10.03;3.97;;;;;;;;;;772897;177;811151;-64
2024/03/27 04:54:53;;;;;;;5.43;3.10;;;;;;;;;;774777;180;916395;-64
2024/03/27 04:57:19;;;;;;;5.43;2.97;;;;;;;;;;781027;176;820422;-64
2024/03/27 04:59:45;;;;;;;7.83;2.83;;;;;;;;;;776673;179;1022626;-64
2024/03/27 05:02:11;;;;;;;7.83;5.50;;;;;;;;;;777785;179;643015;-64
2024/03/27 05:04:37;;;;;;;5.20;2.80;;;;;;;;;;777690;177;749033;-64
2024/03/27 05:07:02;;;;;;;5.80;2.70;;;;;;;;;;780678;177;641576;-64
2024/03/27 05:09:30;;;;;;;6.80;1.90;;;;;;;;;;776083;178;627084;-63
2024/03/27 05:11:54;;;;;;;4.10;2.60;;;;;;;;;;778091;179;633023;-64
2024/03/27 05:14:20;;;;;;;7.30;3.27;;;;;;;;;;781243;179;713874;-64
2024/03/27 05:16:46;;;;;;;7.00;2.67;;;;;;;;;;777084;178;819346;-66
2024/03/27 05:19:12;;;;;;;5.57;2.30;;;;;;;;;;778879;179;640188;-66
2024/03/27 05:21:38;;;;;;;5.83;3.10;;;;;;;;;;784176;179;636808;-67
2024/03/27 05:24:04;;;;;;;5.00;2.97;;;;;;;;;;776052;177;617534;-66
2024/03/27 05:26:29;;;;;;;4.15;2.17;;;;;;;;;;780692;178;637826;-67
2024/03/27 05:28:55;;;;;;;5.17;2.90;;;;;;;;;;778127;178;914337;-67
2024/03/27 05:31:21;;;;;;;5.53;2.87;;;;;;;;;;776981;178;706815;-66
2024/03/27 05:33:47;;;;;;;9.90;3.27;;;;;;;;;;774483;178;910305;-69
2024/03/27 05:36:13;;;;;;;5.50;2.75;;;;;;;;;;777704;177;798744;-67
2024/03/27 05:38:39;;;;;;;4.63;3.00;;;;;;;;;;766971;182;842849;-66
2024/03/27 05:41:05;;;;;;;6.27;3.23;;;;;;;;;;750362;186;616250;-66
2024/03/27 05:43:31;;;;;;;6.33;3.57;;;;;;;;;;775004;179;665199;-66
2024/03/27 05:45:56;;;;;;;3.93;2.17;;;;;;;;;;780817;179;693437;-66
2024/03/27 05:48:23;;;;;;;6.10;2.97;;;;;;;;;;774395;177;804466;-65
2024/03/27 05:50:48;;;;;;;7.85;3.20;;;;;;;;;;775300;179;642634;-66
2024/03/27 05:53:14;;;;;;;7.10;3.17;;;;;;;;;;782591;178;616327;-66
2024/03/27 05:55:40;;;;;;;6.60;3.73;;;;;;;;;;776423;177;750890;-69
2024/03/27 05:58:06;;;;;;;5.43;2.83;;;;;;;;;;780682;178;628614;-69
2024/03/27 06:00:32;;;;;;;11.20;3.67;;;;;;;;;;778833;178;821088;-69
2024/03/27 06:02:57;;;;;;;8.13;3.87;;;;;;;;;;776817;177;908137;-69
2024/03/27 06:05:23;;;;;;;8.57;3.13;;;;;;;;;;777949;177;786556;-69
2024/03/27 06:07:49;;;;;;;7.87;3.10;;;;;;;;;;781543;179;683443;-69
2024/03/27 06:10:15;;;;;;;5.30;3.23;;;;;;;;;;778402;178;919832;-69
2024/03/27 06:12:41;;;;;;;5.30;2.90;;;;;;;;;;777598;177;713937;-66
2024/03/27 06:15:07;;;;;;;6.07;2.77;;;;;;;;;;775225;179;778327;-67
2024/03/27 06:17:33;;;;;;;5.60;3.00;;;;;;;;;;779854;179;816678;-66
2024/03/27 06:19:59;;;;;;;10.53;4.00;;;;;;;;;;771676;179;843613;-66
2024/03/27 06:22:24;;;;;;;8.50;3.95;;;;;;;;;;774708;179;816197;-67
2024/03/27 06:24:50;;;;;;;6.90;2.17;;;;;;;;;;776657;179;921451;-69
2024/03/27 06:27:16;;;;;;;7.80;3.30;;;;;;;;;;774667;177;811929;-69
2024/03/27 06:29:42;;;;;;;6.17;3.60;;;;;;;;;;772664;179;919054;-69
2024/03/27 06:32:10;;;;;;;7.10;3.10;;;;;;;;;;780658;177;647001;-69
2024/03/27 06:34:34;;;;;;;4.50;3.00;;;;;;;;;;771241;179;920169;-70
2024/03/27 06:37:00;;;;;;;9.80;3.10;;;;;;;;;;772211;180;924232;-69
2024/03/27 06:39:26;;;;;;;7.50;3.70;;;;;;;;;;778710;179;711392;-69
2024/03/27 06:41:52;;;;;;;5.20;2.97;;;;;;;;;;772547;178;1002839;-69
2024/03/27 06:44:17;;;;;;;4.53;3.07;;;;;;;;;;771555;179;956403;-69
2024/03/27 06:46:44;;;;;;;3.40;2.30;;;;;;;;;;773464;179;915057;-69
2024/03/27 06:51:41;;;;;;;6.20;3.97;;;;;;;;;;773672;179;719601;-69
2024/03/27 06:54:07;;;;;;;6.47;3.30;;;;;;;;;;773299;179;917321;-69
2024/03/27 06:56:33;;;;;;;8.48;4.30;;;;;;;;;;782131;179;742263;-69
2024/03/27 06:58:59;;;;;;;5.53;3.77;;;;;;;;;;776629;179;940395;-69
2024/03/27 07:01:25;;;;;;;5.27;3.40;;;;;;;;;;774800;177;1118510;-69
2024/03/27 07:03:51;;;;;;;7.03;2.83;;;;;;;;;;776567;177;821874;-69
2024/03/27 07:06:16;;;;;;;7.90;3.30;;;;;;;;;;772793;178;640709;-69
2024/03/27 07:08:42;;;;;;;5.83;3.73;;;;;;;;;;776595;178;918897;-69
2024/03/27 07:11:08;;;;;;;9.57;3.80;;;;;;;;;;771933;177;878429;-69
2024/03/27 07:13:34;;;;;;;9.30;4.00;;;;;;;;;;780328;179;789175;-67
2024/03/27 07:16:00;;;;;;;6.83;3.50;;;;;;;;;;773346;179;798235;-66
2024/03/27 07:18:28;;;;;;;7.23;4.03;;;;;;;;;;770390;177;919592;-67
2024/03/27 07:20:55;;;;;;;4.87;3.23;;;;;;;;;;782232;179;918972;-66
2024/03/27 07:23:21;;;;;;;5.00;3.83;;;;;;;;;;776118;179;870021;-66
2024/03/27 07:25:46;;;;;;;8.73;3.63;;;;;;;;;;777326;179;625438;-66
2024/03/27 07:28:12;;;;;;;9.23;3.80;;;;;;;;;;780708;177;828886;-67
2024/03/27 07:30:38;;;;;;;9.83;4.00;;;;;;;;;;776133;179;814995;-67
2024/03/27 07:33:04;;;;;;;9.43;3.40;;;;;;;;;;773049;179;918511;-67
2024/03/27 07:35:30;;;;;;;5.80;3.13;;;;;;;;;;774434;178;850402;-66
2024/03/27 07:37:56;;;;;;;12.40;6.00;;;;;;;;;;766612;181;809165;-66
2024/03/27 07:40:22;;;;;;;5.57;3.50;;;;;;;;;;775252;179;919540;-66
2024/03/27 07:42:47;;;;;;;6.70;3.63;;;;;;;;;;771595;179;922948;-67
2024/03/27 07:45:13;;;;;;;8.23;4.30;;;;;;;;;;781769;179;712823;-67
2024/03/27 07:47:39;;;;;;;4.40;2.83;;;;;;;;;;772542;179;880251;-66
2024/03/27 07:50:07;;;;;;;6.40;4.07;;;;;;;;;;774370;179;929121;-66
2024/03/27 07:52:31;;;;;;;7.03;3.70;;;;;;;;;;781521;179;777709;-67
2024/03/27 07:54:57;;;;;;;7.90;3.80;;;;;;;;;;775194;177;918349;-65
2024/03/27 07:57:23;;;;;;;5.80;3.20;;;;;;;;;;775168;177;894764;-66
2024/03/27 07:59:49;;;;;;;5.83;3.60;;;;;;;;;;777829;179;930500;-71
2024/03/27 08:02:15;;;;;;;13.33;3.57;;;;;;;;;;776772;179;709626;-69
2024/03/27 08:04:40;;;;;;;7.07;3.53;;;;;;;;;;770971;179;917685;-68
2024/03/27 08:07:06;;;;;;;6.63;3.40;;;;;;;;;;774624;179;837728;-69
2024/03/27 08:09:32;;;;;;;10.20;4.30;;;;;;;;;;774846;179;740057;-68
2024/03/27 08:11:58;;;;;;;8.80;4.10;;;;;;;;;;771437;179;912865;-67
2024/03/27 08:14:24;;;;;;;8.68;3.30;;;;;;;;;;771754;179;919743;-69
2024/03/27 08:16:50;;;;;;;8.43;4.00;;;;;;;;;;780085;178;907284;-69
2024/03/27 08:19:16;;;;;;;5.10;3.07;;;;;;;;;;771853;178;802516;-69
2024/03/27 08:21:41;;;;;;;8.97;4.57;;;;;;;;;;775498;178;706896;-69
2024/03/27 08:24:07;;;;;;;7.33;3.10;;;;;;;;;;779106;178;713927;-69
2024/03/27 08:26:33;;;;;;;5.13;3.40;;;;;;;;;;776079;177;814998;-69
2024/03/27 08:28:59;;;;;;;7.03;3.20;;;;;;;;;;775794;179;624461;-68
2024/03/27 08:31:25;;;;;;;7.30;3.17;;;;;;;;;;782752;179;810511;-67
2024/03/27 08:33:51;;;;;;;6.83;3.03;;;;;;;;;;774900;178;918316;-69
2024/03/27 08:36:17;;;;;;;5.72;3.10;;;;;;;;;;771869;176;895610;-69
2024/03/27 08:38:43;;;;;;;5.77;3.10;;;;;;;;;;775675;177;626833;-69
2024/03/27 08:41:08;;;;;;;5.73;2.93;;;;;;;;;;768766;180;1205237;-69
2024/03/27 08:43:34;;;;;;;7.70;3.37;;;;;;;;;;773480;179;922707;-66
2024/03/27 08:46:00;;;;;;;6.53;2.70;;;;;;;;;;770434;179;918907;-66
2024/03/27 08:48:26;;;;;;;5.40;2.30;;;;;;;;;;779984;178;921788;-63
2024/03/27 08:50:52;;;;;;;3.97;2.43;;;;;;;;;;776695;179;893086;-66
2024/03/27 08:53:17;;;;;;;6.53;2.30;;;;;;;;;;775807;179;811434;-67
2024/03/27 08:55:43;;;;;;;6.13;2.83;;;;;;;;;;780247;177;725466;-66
2024/03/27 08:58:09;;;;;;;4.53;2.43;;;;;;;;;;770644;177;920379;-66
2024/03/27 09:00:35;;;;;;;3.97;2.95;;;;;;;;;;768936;178;995914;-66
2024/03/27 09:03:02;;;;;;;3.47;2.20;;;;;;;;;;780153;179;710658;-66
2024/03/27 09:05:26;;;;;;;4.70;2.17;;;;;;;;;;776299;177;793954;-69
2024/03/27 09:07:52;;;;;;;4.13;2.10;;;;;;;;;;769036;178;946033;-69
2024/03/27 09:10:18;;;;;;;11.00;3.83;;;;;;;;;;777992;177;852982;-69
2024/03/27 09:12:44;;;;;;;3.83;2.30;;;;;;;;;;770658;179;946874;-69
2024/03/27 09:15:10;;;;;;;3.60;2.10;;;;;;;;;;770010;177;906755;-69
2024/03/27 09:17:36;;;;;;;4.60;2.00;;;;;;;;;;775644;179;799935;-69
2024/03/27 09:20:03;;;;;;;5.20;2.13;;;;;;;;;;775345;179;896911;-66
2024/03/27 09:22:27;;;;;;;4.68;2.80;;;;;;;;;;775309;179;1111000;-66
2024/03/27 09:24:54;;;;;;;5.83;2.10;;;;;;;;;;774445;179;747750;-66
2024/03/27 09:27:20;;;;;;;10.60;2.63;;;;;;;;;;778646;179;907471;-66
2024/03/27 09:29:46;;;;;;;4.80;2.03;;;;;;;;;;771700;179;918027;-67
2024/03/27 09:32:12;;;;;;;8.57;2.70;;;;;;;;;;773777;178;877272;-67
2024/03/27 09:34:38;;;;;;;5.63;2.23;;;;;;;;;;780300;177;907058;-66
2024/03/27 09:37:03;;;;;;;5.40;2.23;;;;;;;;;;779537;177;811582;-68
2024/03/27 09:39:29;;;;;;;3.60;1.63;;;;;;;;;;776775;179;808444;-69
2024/03/27 09:41:55;;;;;;;5.10;2.27;;;;;;;;;;775451;178;912233;-69
2024/03/27 09:44:21;;;;;;;3.70;2.07;;;;;;;;;;775034;179;910772;-68
2024/03/27 09:46:47;;;;;;;5.50;2.20;;;;;;;;;;771286;179;1004175;-68
2024/03/27 09:49:13;;;;;;;3.70;2.23;;;;;;;;;;772317;178;819366;-69
2024/03/27 09:51:39;;;;;;;3.57;1.80;;;;;;;;;;778776;178;797419;-67
2024/03/27 09:54:05;;;;;;;4.20;3.33;;;;;;;;;;773461;177;816531;-65
2024/03/27 09:56:31;;;;;;;3.30;2.00;;;;;;;;;;775515;177;916575;-66
2024/03/27 09:58:57;;;;;;;3.43;2.10;;;;;;;;;;781494;178;645062;-65
2024/03/27 10:01:23;;;;;;;9.80;2.87;;;;;;;;;;773838;177;816713;-65
2024/03/27 10:03:49;;;;;;;6.83;2.63;;;;;;;;;;776479;179;668564;-65
2024/03/27 10:06:14;;;;;;;3.07;1.63;;;;;;;;;;777265;179;812499;-65
2024/03/27 10:08:40;;;;;;;3.70;2.17;;;;;;;;;;771438;178;913331;-65
2024/03/27 10:11:07;;;;;;;7.53;2.77;;;;;;;;;;772459;179;820039;-65
2024/03/27 10:13:32;;;;;;;5.27;2.40;;;;;;;;;;778167;179;836526;-66
2024/03/27 10:15:58;;;;;;;4.10;2.47;;;;;;;;;;770128;179;910133;-67
2024/03/27 10:18:26;;;;;;;5.60;2.40;;;;;;;;;;778836;179;625869;-65
2024/03/27 10:20:50;;;;;;;4.13;2.50;;;;;;;;;;772165;177;920110;-66
2024/03/27 10:23:16;;;;;;;6.73;3.03;;;;;;;;;;781529;177;900993;-65
2024/03/27 10:25:42;;;;;;;3.53;1.97;;;;;;;;;;774519;177;779432;-64
2024/03/27 10:28:08;;;;;;;3.83;2.03;;;;;;;;;;771019;178;1013398;-65
2024/03/27 10:30:34;;;;;;;4.95;2.72;;;;;;;;;;777504;179;804033;-64
2024/03/27 10:32:59;;;;;;;4.70;3.23;;;;;;;;;;776358;177;872671;-66
2024/03/27 10:35:35;;;;;;;5.33;2.00;;;;;;;;;;778115;177;637441;-65
2024/03/27 10:37:59;;;;;;;5.80;2.70;;;;;;;;;;770062;179;820084;-65
2024/03/27 10:40:26;;;;;;;4.87;2.83;;;;;;;;;;776178;178;718815;-65
2024/03/27 10:42:54;;;;;;;5.43;2.87;;;;;;;;;;778041;177;912422;-65
2024/03/27 10:45:20;;;;;;;3.33;1.47;;;;;;;;;;774630;177;919012;-65
2024/03/27 10:47:46;;;;;;;4.80;2.67;;;;;;;;;;777449;179;815855;-65
2024/03/27 10:50:12;;;;;;;7.57;2.57;;;;;;;;;;774746;177;854991;-65
2024/03/27 10:52:37;;;;;;;6.07;2.60;;;;;;;;;;778729;177;899667;-65
2024/03/27 10:55:06;;;;;;;6.47;2.27;;;;;;;;;;780880;179;715529;-65
2024/03/27 10:57:30;;;;;;;5.30;2.37;;;;;;;;;;773912;179;706562;-65
2024/03/27 10:59:55;;;;;;;4.17;2.33;;;;;;;;;;773480;178;917158;-67
2024/03/27 11:02:21;;;;;;;5.17;2.70;;;;;;;;;;780923;180;919354;-69
2024/03/27 11:04:53;;;;;;;5.27;1.93;;;;;;;;;;773877;178;642875;-66
2024/03/27 11:07:19;;;;;;;5.73;2.67;;;;;;;;;;775105;177;709723;-68
2024/03/27 11:09:48;;;;;;;8.40;2.75;;;;;;;;;;773061;177;916830;-67
2024/03/27 11:12:13;;;;;;;5.50;2.70;;;;;;;;;;778585;178;905594;-67
2024/03/27 11:14:39;;;;;;;3.70;2.13;;;;;;;;;;777246;179;617441;-64
2024/03/27 11:17:05;;;;;;;5.12;2.35;;;;;;;;;;778592;177;753290;-65
2024/03/27 11:19:34;;;;;;;8.03;2.50;;;;;;;;;;774832;177;818674;-65
2024/03/27 11:21:59;;;;;;;6.73;2.83;;;;;;;;;;782519;179;714851;-65
2024/03/27 11:24:25;;;;;;;4.70;2.57;;;;;;;;;;774350;178;879715;-64
2024/03/27 11:26:51;;;;;;;5.33;3.50;;;;;;;;;;770122;179;918211;-65
2024/03/27 11:29:23;;;;;;;3.65;1.77;;;;;;;;;;777681;179;808237;-65
2024/03/27 11:31:49;;;;;;;6.07;2.17;;;;;;;;;;771249;179;819523;-66
2024/03/27 11:34:15;;;;;;;7.00;2.40;;;;;;;;;;774161;177;920533;-66
2024/03/27 11:36:41;;;;;;;5.03;2.70;;;;;;;;;;778910;179;820279;-65
2024/03/27 11:39:07;;;;;;;6.73;2.50;;;;;;;;;;777349;179;616818;-65
2024/03/27 11:41:33;;;;;;;9.30;2.73;;;;;;;;;;775115;177;1132681;-65
2024/03/27 11:43:59;;;;;;;3.40;2.10;;;;;;;;;;777382;179;679824;-66
2024/03/27 11:46:25;;;;;;;5.03;2.57;;;;;;;;;;776591;180;820289;-65
2024/03/27 11:48:51;;;;;;;4.37;2.60;;;;;;;;;;775998;179;710736;-68
2024/03/27 11:51:16;;;;;;;7.40;2.60;;;;;;;;;;777824;179;638483;-69
2024/03/27 11:53:42;;;;;;;6.37;2.90;;;;;;;;;;770834;178;866452;-67
2024/03/27 11:56:08;;;;;;;7.70;2.55;;;;;;;;;;766281;177;836561;-69
2024/03/27 11:58:35;;;;;;;4.53;3.00;;;;;;;;;;779261;177;626043;-68
2024/03/27 12:01:01;;;;;;;4.40;2.30;;;;;;;;;;784090;179;623625;-68
2024/03/27 12:03:27;;;;;;;9.20;3.40;;;;;;;;;;778991;178;738827;-68
2024/03/27 12:05:52;;;;;;;4.50;2.40;;;;;;;;;;779410;177;721494;-68
2024/03/27 12:08:19;;;;;;;5.70;2.60;;;;;;;;;;780071;179;841849;-68
2024/03/27 12:10:44;;;;;;;3.40;2.50;;;;;;;;;;777000;179;809570;-69
2024/03/27 12:13:10;;;;;;;4.67;2.43;;;;;;;;;;771277;179;1101330;-68
2024/03/27 12:15:37;;;;;;;3.27;2.10;;;;;;;;;;775108;178;812499;-67
2024/03/27 12:18:03;;;;;;;6.10;3.00;;;;;;;;;;781359;176;900776;-68
2024/03/27 12:20:31;;;;;;;8.27;4.40;;;;;;;;;;776743;178;810455;-68
2024/03/27 12:22:57;;;;;;;6.23;3.23;;;;;;;;;;773262;177;814990;-66
2024/03/27 12:25:23;;;;;;;5.00;1.93;;;;;;;;;;779164;179;919333;-66
2024/03/27 12:27:49;;;;;;;8.00;2.53;;;;;;;;;;773832;179;913491;-66
2024/03/27 12:30:18;;;;;;;4.50;2.30;;;;;;;;;;776877;179;777298;-66
2024/03/27 12:32:44;;;;;;;6.03;2.53;;;;;;;;;;774997;179;833836;-67
2024/03/27 12:35:09;;;;;;;3.90;2.33;;;;;;;;;;773182;179;614934;-68
2024/03/27 12:37:35;;;;;;;7.80;2.60;;;;;;;;;;775117;180;617719;-66
2024/03/27 12:40:02;;;;;;;5.23;2.30;;;;;;;;;;777012;179;632291;-66
2024/03/27 12:45:08;;;;;;;6.93;2.58;;;;;;;;;;793638;170;875220;-64
2024/03/27 12:47:34;;;;;;;4.17;2.30;;;;;;;;;;755077;182;862650;-65
2024/03/27 12:50:00;;;;;;;7.65;2.85;;;;;;;;;;762676;183;918932;-64
2024/03/27 12:52:26;;;;;;;3.43;2.13;;;;;;;;;;766980;183;874668;-64
2024/03/27 12:54:51;;;;;;;4.47;2.90;;;;;;;;;;763297;183;779336;-66
2024/03/27 12:57:17;;;;;;;7.40;2.27;;;;;;;;;;763035;183;909179;-65
2024/03/27 12:59:43;;;;;;;4.23;2.40;;;;;;;;;;765129;183;851695;-64
2024/03/27 13:02:11;;;;;;;4.90;2.27;;;;;;;;;;762982;183;860889;-64
2024/03/27 13:04:35;;;;;;;10.13;2.43;;;;;;;;;;760110;183;903158;-65
2024/03/27 13:07:01;;;;;;;3.83;2.30;;;;;;;;;;767832;183;760854;-67
2024/03/27 13:09:27;;;;;;;4.63;2.50;;;;;;;;;;747559;183;3582129;-67
2024/03/27 13:11:53;;;;;;;3.95;2.35;;;;;;;;;;762218;183;918175;-68
2024/03/27 13:14:19;;;;;;;4.60;2.47;;;;;;;;;;764028;183;720829;-67
2024/03/27 13:16:44;;;;;;;4.07;2.60;;;;;;;;;;767294;183;930118;-67
2024/03/27 13:19:10;;;;;;;7.23;2.30;;;;;;;;;;763595;183;814623;-67
2024/03/27 13:21:36;;;;;;;8.77;2.60;;;;;;;;;;760361;183;918433;-66
2024/03/27 13:24:02;;;;;;;4.87;2.37;;;;;;;;;;765247;183;869519;-66
2024/03/27 13:26:28;;;;;;;5.70;2.30;;;;;;;;;;762066;183;810361;-67
2024/03/27 13:28:54;;;;;;;4.73;2.33;;;;;;;;;;765311;183;705792;-67
2024/03/27 13:31:20;;;;;;;4.83;2.63;;;;;;;;;;765162;183;889301;-67
2024/03/27 13:33:45;;;;;;;15.97;3.20;;;;;;;;;;757726;183;1226377;-66
2024/03/27 13:36:11;;;;;;;4.60;2.47;;;;;;;;;;762049;183;907041;-65
2024/03/27 13:38:37;;;;;;;4.73;2.20;;;;;;;;;;765215;183;857894;-64
2024/03/27 13:41:03;;;;;;;5.13;1.80;;;;;;;;;;762535;183;779083;-64
2024/03/27 13:43:29;;;;;;;5.37;2.60;;;;;;;;;;761829;183;882772;-65
2024/03/27 13:45:55;;;;;;;6.87;2.90;;;;;;;;;;761241;183;784749;-65
2024/03/27 13:48:22;;;;;;;5.33;2.63;;;;;;;;;;761609;183;813811;-64
2024/03/27 13:50:47;;;;;;;8.37;2.87;;;;;;;;;;763916;183;917701;-64
2024/03/27 13:53:13;;;;;;;8.90;2.92;;;;;;;;;;761743;183;817646;-65
2024/03/27 13:55:39;;;;;;;3.67;2.40;;;;;;;;;;770526;182;779046;-64
2024/03/27 13:58:05;;;;;;;9.77;3.33;;;;;;;;;;764148;183;924398;-65
2024/03/27 14:00:31;;;;;;;4.28;2.20;;;;;;;;;;762023;182;879486;-64
2024/03/27 14:02:56;;;;;;;5.20;2.00;;;;;;;;;;764555;182;805292;-65
2024/03/27 14:05:22;;;;;;;3.53;2.33;;;;;;;;;;763926;183;847304;-66
2024/03/27 14:07:48;;;;;;;6.37;2.20;;;;;;;;;;762674;183;816355;-66
2024/03/27 14:10:15;;;;;;;6.23;2.57;;;;;;;;;;767153;183;817894;-67
2024/03/27 14:12:40;;;;;;;4.87;2.27;;;;;;;;;;764281;182;786197;-67
2024/03/27 14:15:10;;;;;;;4.40;2.40;;;;;;;;;;763761;183;918461;-67
2024/03/27 14:17:32;;;;;;;13.10;5.85;;;;;;;;;;763508;183;845050;-67
2024/03/27 14:19:58;;;;;;;6.70;3.17;;;;;;;;;;769129;183;703020;-66
2024/03/27 14:22:24;;;;;;;5.60;2.70;;;;;;;;;;762636;183;955583;-68
2024/03/27 14:24:50;;;;;;;7.37;2.70;;;;;;;;;;762509;183;821490;-67
2024/03/27 14:27:16;;;;;;;7.40;2.80;;;;;;;;;;768953;183;710364;-66
2024/03/27 14:29:42;;;;;;;3.58;2.10;;;;;;;;;;761790;183;870921;-67
2024/03/27 14:32:09;;;;;;;7.03;2.60;;;;;;;;;;763849;183;775906;-67
2024/03/27 14:34:35;;;;;;;5.90;2.80;;;;;;;;;;766750;182;923797;-67
2024/03/27 14:37:01;;;;;;;5.33;2.73;;;;;;;;;;761305;183;815110;-66
2024/03/27 14:39:27;;;;;;;4.93;2.90;;;;;;;;;;761514;183;927241;-67